createdAt,value
2023-12-02T00:01:01.833Z,15.75
2023-12-02T00:04:04.750Z,15.70
2023-12-02T00:07:07.396Z,16.80
2023-12-02T00:10:12.323Z,18.50
2023-12-02T00:13:15.093Z,19.02
2023-12-02T00:16:17.789Z,17.58
2023-12-02T00:19:20.618Z,18.80
2023-12-02T00:22:23.348Z,20.17
2023-12-02T00:25:26.260Z,17.35
2023-12-02T00:28:29.040Z,16.92
2023-12-02T00:31:31.706Z,16.05
2023-12-02T00:34:34.525Z,17.13
2023-12-02T00:37:37.360Z,15.57
2023-12-02T00:40:40.150Z,18.42
2023-12-02T00:43:42.849Z,17.52
2023-12-02T00:46:45.650Z,17.77
2023-12-02T00:49:48.528Z,19.75
2023-12-02T00:52:51.275Z,18.35
2023-12-02T00:55:53.942Z,19.17
2023-12-02T00:58:56.583Z,20.27
2023-12-02T01:01:59.358Z,19.63
2023-12-02T01:05:03.237Z,19.45
2023-12-02T01:08:06.016Z,18.70
2023-12-02T01:11:08.977Z,19.00
2023-12-02T01:14:11.780Z,17.42
2023-12-02T01:17:14.885Z,19.23
2023-12-02T01:20:17.770Z,17.08
2023-12-02T01:23:20.479Z,17.70
2023-12-02T01:26:23.234Z,17.23
2023-12-02T01:29:25.934Z,17.33
2023-12-02T01:32:28.790Z,16.10
2023-12-02T01:35:31.556Z,14.80
2023-12-02T01:38:34.178Z,13.93
2023-12-02T01:41:36.987Z,13.30
2023-12-02T01:44:39.787Z,13.20
2023-12-02T01:47:43.445Z,13.82
2023-12-02T01:50:46.210Z,14.68
2023-12-02T01:53:48.926Z,14.05
2023-12-02T01:56:51.675Z,14.48
2023-12-02T02:00:07.252Z,14.20
2023-12-02T02:03:14.472Z,13.70
2023-12-02T02:06:17.221Z,13.23
2023-12-02T02:09:20.100Z,13.63
2023-12-02T02:12:22.952Z,13.90
2023-12-02T02:15:25.651Z,12.57
2023-12-02T02:18:33.759Z,12.63
2023-12-02T02:21:37.212Z,12.63
2023-12-02T02:24:40.313Z,12.75
2023-12-02T02:27:43.010Z,12.63
2023-12-02T02:30:45.729Z,11.10
2023-12-02T02:33:48.493Z,10.40
2023-12-02T02:36:51.233Z,9.98
2023-12-02T02:39:53.896Z,9.30
2023-12-02T02:42:56.614Z,9.88
2023-12-02T02:45:59.249Z,9.07
2023-12-02T02:49:02.055Z,10.02
2023-12-02T02:52:04.942Z,9.57
2023-12-02T02:55:07.840Z,9.40
2023-12-02T02:58:10.583Z,10.18
2023-12-02T03:01:13.533Z,10.30
2023-12-02T03:04:16.416Z,9.30
2023-12-02T03:07:19.185Z,9.02
2023-12-02T03:10:22.956Z,9.30
2023-12-02T03:13:25.670Z,9.02
2023-12-02T03:16:28.351Z,10.23
2023-12-02T03:19:31.111Z,10.43
2023-12-02T03:22:33.824Z,11.30
2023-12-02T03:25:36.562Z,11.20
2023-12-02T03:28:39.197Z,11.23
2023-12-02T03:31:42.044Z,11.40
2023-12-02T03:34:44.947Z,9.95
2023-12-02T03:37:47.749Z,10.43
2023-12-02T03:40:50.427Z,10.30
2023-12-02T03:43:58.549Z,9.43
2023-12-02T03:47:02.036Z,10.43
2023-12-02T03:50:06.352Z,12.07
2023-12-02T03:53:09.122Z,11.20
2023-12-02T03:56:12.121Z,11.18
2023-12-02T03:59:14.765Z,10.15
2023-12-02T04:02:17.448Z,10.50
2023-12-02T04:05:21.152Z,10.20
2023-12-02T04:08:24.152Z,10.25
2023-12-02T04:11:27.720Z,10.32
2023-12-02T04:14:31.680Z,11.52
2023-12-02T04:17:34.707Z,11.15
2023-12-02T04:20:37.898Z,12.25
2023-12-02T04:23:41.121Z,10.73
2023-12-02T04:26:44.618Z,9.93
2023-12-02T04:29:47.641Z,11.15
2023-12-02T04:32:51.292Z,10.45
2023-12-02T04:35:55.617Z,11.35
2023-12-02T04:38:59.436Z,11.60
2023-12-02T04:42:02.233Z,11.18
2023-12-02T04:45:07.100Z,11.43
2023-12-02T04:48:10.495Z,12.32
2023-12-02T04:51:14.400Z,11.30
2023-12-02T04:54:17.210Z,11.18
2023-12-02T04:57:21.176Z,11.70
2023-12-02T05:00:25.133Z,10.43
2023-12-02T05:03:31.514Z,11.48
2023-12-02T05:06:34.699Z,9.43
2023-12-02T05:09:39.327Z,10.73
2023-12-02T05:12:42.809Z,10.27
2023-12-02T05:15:53.169Z,9.00
2023-12-02T05:18:57.132Z,9.20
2023-12-02T05:22:00.571Z,9.48
2023-12-02T05:25:04.177Z,9.38
2023-12-02T05:28:08.041Z,9.15
2023-12-02T05:31:11.914Z,9.05
2023-12-02T05:34:15.224Z,9.27
2023-12-02T05:37:21.999Z,8.75
2023-12-02T05:40:24.766Z,9.13
2023-12-02T05:43:27.964Z,8.65
2023-12-02T05:46:31.222Z,16.92
2023-12-02T05:49:36.439Z,9.57
2023-12-02T05:52:39.294Z,8.07
2023-12-02T05:55:44.347Z,8.02
2023-12-02T05:58:47.804Z,7.28
2023-12-02T06:01:51.951Z,7.70
2023-12-02T06:04:55.354Z,7.80
2023-12-02T06:07:58.944Z,7.78
2023-12-02T06:11:03.504Z,7.80
2023-12-02T06:14:07.524Z,8.48
2023-12-02T06:17:10.979Z,7.50
2023-12-02T06:20:15.533Z,8.93
2023-12-02T06:23:18.395Z,9.68
2023-12-02T06:26:21.870Z,9.10
2023-12-02T06:29:25.533Z,11.18
2023-12-02T06:32:28.978Z,10.20
2023-12-02T06:35:32.449Z,10.75
2023-12-02T06:38:35.419Z,10.20
2023-12-02T06:41:48.605Z,11.25
2023-12-02T06:44:59.219Z,11.73
2023-12-02T06:48:03.780Z,11.38
2023-12-02T06:51:12.875Z,12.60
2023-12-02T06:54:16.420Z,11.20
2023-12-02T06:57:22.717Z,11.88
2023-12-02T07:00:25.576Z,11.18
2023-12-02T07:03:29.811Z,10.23
2023-12-02T07:06:33.355Z,10.75
2023-12-02T07:09:38.204Z,12.90
2023-12-02T07:12:41.533Z,10.98
2023-12-02T07:15:44.933Z,11.90
2023-12-02T07:18:48.256Z,12.02
2023-12-02T07:21:56.114Z,12.27
2023-12-02T07:24:59.680Z,11.30
2023-12-02T07:28:03.357Z,10.60
2023-12-02T07:31:06.729Z,11.60
2023-12-02T07:34:12.848Z,12.32
2023-12-02T07:37:15.686Z,13.65
2023-12-02T07:40:19.341Z,11.98
2023-12-02T07:43:22.609Z,13.80
2023-12-02T07:46:28.345Z,12.93
2023-12-02T07:49:31.360Z,13.02
2023-12-02T07:52:35.010Z,12.75
2023-12-02T07:55:37.927Z,14.75
2023-12-02T07:58:41.333Z,14.30
2023-12-02T08:01:46.063Z,13.63
2023-12-02T08:05:44.023Z,13.90
2023-12-02T08:08:13.469Z,14.68
2023-12-02T08:11:17.377Z,13.68
2023-12-02T08:14:20.328Z,13.60
2023-12-02T08:17:23.382Z,14.70
2023-12-02T08:20:26.802Z,13.00
2023-12-02T08:23:30.551Z,12.30
2023-12-02T08:26:34.017Z,12.27
2023-12-02T08:29:40.551Z,13.05
2023-12-02T08:32:43.826Z,12.75
2023-12-02T08:35:47.044Z,12.90
2023-12-02T08:38:50.220Z,13.15
2023-12-02T08:41:56.058Z,12.45
2023-12-02T08:45:05.011Z,12.20
2023-12-02T08:48:08.352Z,12.13
2023-12-02T08:51:15.745Z,13.05
2023-12-02T08:54:18.671Z,12.27
2023-12-02T08:57:22.740Z,12.85
2023-12-02T09:00:25.894Z,11.52
2023-12-02T09:03:32.559Z,12.68
2023-12-02T09:06:46.224Z,13.15
2023-12-02T09:09:57.865Z,11.38
2023-12-02T09:13:30.804Z,12.50
2023-12-02T09:16:48.358Z,13.13
2023-12-02T09:19:55.864Z,12.88
2023-12-02T09:23:02.783Z,13.23
2023-12-02T09:26:41.580Z,12.88
2023-12-02T09:29:54.853Z,13.55
2023-12-02T09:32:58.377Z,14.88
2023-12-02T09:36:03.428Z,13.35
2023-12-02T09:39:11.032Z,13.77
2023-12-02T09:42:15.196Z,14.13
2023-12-02T09:45:27.589Z,13.90
2023-12-02T09:48:53.165Z,13.18
2023-12-02T09:52:26.822Z,13.13
2023-12-02T09:55:54.086Z,12.30
2023-12-02T09:59:21.651Z,13.20
2023-12-02T10:03:04.062Z,12.30
2023-12-02T10:06:16.305Z,12.63
2023-12-02T10:09:42.276Z,11.90
2023-12-02T10:12:54.160Z,11.25
2023-12-02T10:16:02.771Z,11.93
2023-12-02T10:19:07.009Z,11.77
2023-12-02T10:22:13.760Z,13.00
2023-12-02T10:25:44.308Z,12.10
2023-12-02T10:28:56.514Z,12.48
2023-12-02T10:32:09.134Z,11.98
2023-12-02T10:35:48.319Z,12.30
2023-12-02T10:39:13.423Z,12.00
2023-12-02T10:42:58.900Z,13.02
2023-12-02T10:46:02.303Z,12.00
2023-12-02T10:49:08.666Z,12.02
2023-12-02T10:55:22.018Z,10.88
2023-12-02T10:58:28.867Z,10.35
2023-12-02T11:01:57.656Z,9.88
2023-12-02T11:05:26.058Z,10.05
2023-12-02T11:08:52.887Z,10.27
2023-12-02T11:12:03.233Z,10.32
2023-12-02T11:15:11.467Z,10.52
2023-12-02T11:18:30.574Z,10.32
2023-12-02T11:21:45.661Z,10.07
2023-12-02T11:25:28.255Z,9.70
2023-12-02T11:28:38.846Z,9.13
2023-12-02T11:32:03.992Z,9.18
2023-12-02T11:35:16.610Z,9.63
2023-12-02T11:38:21.335Z,9.43
2023-12-02T11:41:45.962Z,9.35
2023-12-02T11:45:22.081Z,8.93
2023-12-02T11:48:38.837Z,9.13
2023-12-02T11:51:47.829Z,8.65
2023-12-02T11:55:34.666Z,9.30
2023-12-02T11:59:00.449Z,8.77
2023-12-02T12:02:29.027Z,9.02
2023-12-02T12:05:42.001Z,9.27
2023-12-02T12:09:04.109Z,9.85
2023-12-02T12:12:16.922Z,9.55
2023-12-02T12:15:20.466Z,9.60
2023-12-02T12:18:24.504Z,9.55
2023-12-02T12:21:28.222Z,9.25
2023-12-02T12:24:39.078Z,8.48
2023-12-02T12:27:46.357Z,9.23
2023-12-02T12:33:56.877Z,9.00
2023-12-02T12:37:00.025Z,8.45
2023-12-02T12:40:05.205Z,9.70
2023-12-02T12:43:12.520Z,8.90
2023-12-02T12:46:18.592Z,8.57
2023-12-02T12:49:27.084Z,9.98
2023-12-02T12:52:31.957Z,8.88
2023-12-02T12:55:52.338Z,8.70
2023-12-02T12:59:02.971Z,9.43
2023-12-02T13:02:39.918Z,9.43
2023-12-02T13:05:44.645Z,8.80
2023-12-02T13:09:06.597Z,8.95
2023-12-02T13:12:18.278Z,8.93
2023-12-02T13:15:22.038Z,8.40
2023-12-02T13:18:30.214Z,10.23
2023-12-02T13:21:36.272Z,8.63
2023-12-02T13:24:50.456Z,8.90
2023-12-02T13:27:53.818Z,9.73
2023-12-02T13:31:02.747Z,8.65
2023-12-02T13:34:15.985Z,9.27
2023-12-02T13:37:25.572Z,9.30
2023-12-02T13:40:39.744Z,9.90
2023-12-02T13:43:49.523Z,11.65
2023-12-02T13:47:07.493Z,12.98
2023-12-02T13:50:14.720Z,12.98
2023-12-02T13:53:21.336Z,11.88
2023-12-02T13:56:31.989Z,9.88
2023-12-02T13:59:47.170Z,9.75
2023-12-02T14:03:13.151Z,11.00
2023-12-02T14:06:25.650Z,8.80
2023-12-02T14:09:29.452Z,8.30
2023-12-02T14:12:49.528Z,8.88
2023-12-02T14:16:13.268Z,9.30
2023-12-02T14:20:17.700Z,9.32
2023-12-02T14:23:41.974Z,11.32
2023-12-02T14:27:03.447Z,8.57
2023-12-02T14:30:44.624Z,7.55
2023-12-02T14:34:02.541Z,8.95
2023-12-02T14:37:38.793Z,10.38
2023-12-02T14:40:44.976Z,9.45
2023-12-02T14:44:26.273Z,10.52
2023-12-02T14:47:41.997Z,10.35
2023-12-02T14:50:49.479Z,10.00
2023-12-02T14:53:58.688Z,9.18
2023-12-02T14:57:23.174Z,9.27
2023-12-02T15:00:27.138Z,10.20
2023-12-02T15:03:31.702Z,9.88
2023-12-02T15:06:42.213Z,10.80
2023-12-02T15:09:46.188Z,10.00
2023-12-02T15:12:50.797Z,9.63
2023-12-02T15:15:54.842Z,11.10
2023-12-02T15:19:12.861Z,13.00
2023-12-02T15:22:21.134Z,12.25
2023-12-02T15:25:24.814Z,10.50
2023-12-02T15:28:27.803Z,12.15
2023-12-02T15:31:32.572Z,10.73
2023-12-02T15:34:36.578Z,10.43
2023-12-02T15:37:43.298Z,10.73
2023-12-02T15:40:47.050Z,10.13
2023-12-02T15:44:02.295Z,12.20
2023-12-02T15:47:05.794Z,10.98
2023-12-02T15:50:13.327Z,12.82
2023-12-02T15:53:25.715Z,12.20
2023-12-02T15:56:39.089Z,11.80
2023-12-02T15:59:49.931Z,12.50
2023-12-02T16:03:01.638Z,14.13
2023-12-02T16:06:12.294Z,11.73
2023-12-02T16:09:26.385Z,14.10
2023-12-02T16:12:31.893Z,11.80
2023-12-02T16:15:37.977Z,14.90
2023-12-02T16:18:44.876Z,11.55
2023-12-02T16:21:58.177Z,11.98
2023-12-02T16:25:22.419Z,12.18
2023-12-02T16:28:45.564Z,13.05
2023-12-02T16:31:52.765Z,13.15
2023-12-02T16:34:58.040Z,11.93
2023-12-02T16:38:01.185Z,12.23
2023-12-02T16:41:08.809Z,13.43
2023-12-02T16:44:11.786Z,13.32
2023-12-02T16:47:52.986Z,13.55
2023-12-02T16:50:57.617Z,12.68
2023-12-02T16:54:01.071Z,13.95
2023-12-02T16:57:05.285Z,12.23
2023-12-02T17:00:18.931Z,13.95
2023-12-02T17:03:29.838Z,12.23
2023-12-02T17:06:48.525Z,12.95
2023-12-02T17:09:54.754Z,13.00
2023-12-02T17:12:57.852Z,15.43
2023-12-02T17:16:02.158Z,13.88
2023-12-02T17:19:09.193Z,24.42
2023-12-02T17:22:16.923Z,13.55
2023-12-02T17:25:57.054Z,13.00
2023-12-02T17:29:00.540Z,12.93
2023-12-02T17:32:04.718Z,13.15
2023-12-02T17:35:14.420Z,14.00
2023-12-02T17:38:31.795Z,13.98
2023-12-02T17:41:41.759Z,13.60
2023-12-02T17:44:53.872Z,12.38
2023-12-02T17:48:10.190Z,12.00
2023-12-02T17:51:29.484Z,12.98
2023-12-02T17:54:47.473Z,12.68
2023-12-02T17:57:56.747Z,12.45
2023-12-02T18:01:00.002Z,12.48
2023-12-02T18:04:39.001Z,11.73
2023-12-02T18:07:51.393Z,12.18
2023-12-02T18:10:56.293Z,14.15
2023-12-02T18:13:59.746Z,12.90
2023-12-02T18:17:03.892Z,11.00
2023-12-02T18:20:07.897Z,9.18
2023-12-02T18:23:15.303Z,10.88
2023-12-02T18:29:21.520Z,8.88
2023-12-02T18:32:25.521Z,9.60
2023-12-02T18:35:36.889Z,8.02
2023-12-02T18:38:47.028Z,9.38
2023-12-02T18:41:59.434Z,9.45
2023-12-02T18:45:10.833Z,10.82
2023-12-02T18:48:23.113Z,9.13
2023-12-02T18:51:35.630Z,9.07
2023-12-02T18:54:46.548Z,10.10
2023-12-02T18:57:57.613Z,11.63
2023-12-02T19:01:00.670Z,11.35
2023-12-02T19:04:09.048Z,10.73
2023-12-02T19:07:15.057Z,11.40
2023-12-02T19:10:18.154Z,10.43
2023-12-02T19:13:22.440Z,10.95
2023-12-02T19:16:25.554Z,9.88
2023-12-02T19:19:34.460Z,8.45
2023-12-02T19:22:42.082Z,9.77
2023-12-02T19:25:46.110Z,10.48
2023-12-02T19:28:54.085Z,9.10
2023-12-02T19:31:57.943Z,8.63
2023-12-02T19:35:04.393Z,8.75
2023-12-02T19:38:09.374Z,8.65
2023-12-02T19:41:12.753Z,8.75
2023-12-02T19:44:18.774Z,8.35
2023-12-02T19:47:22.058Z,8.00
2023-12-02T19:50:27.707Z,7.07
2023-12-02T19:53:31.061Z,7.15
2023-12-02T19:56:36.064Z,7.78
2023-12-02T19:59:39.373Z,7.05
2023-12-02T20:02:43.950Z,6.90
2023-12-02T20:05:47.174Z,8.40
2023-12-02T20:08:51.007Z,7.32
2023-12-02T20:11:54.015Z,5.82
2023-12-02T20:14:58.191Z,7.07
2023-12-02T20:18:01.939Z,7.63
2023-12-02T20:21:09.942Z,7.78
2023-12-02T20:24:22.312Z,6.40
2023-12-02T20:27:26.276Z,6.80
2023-12-02T20:30:32.377Z,9.25
2023-12-02T20:33:38.882Z,8.15
2023-12-02T20:36:42.715Z,8.32
2023-12-02T20:39:47.017Z,8.18
2023-12-02T20:42:50.235Z,8.43
2023-12-02T20:45:53.910Z,8.85
2023-12-02T20:48:58.453Z,8.32
2023-12-02T20:52:03.746Z,9.35
2023-12-02T20:55:07.578Z,8.93
2023-12-02T20:58:12.236Z,8.50
2023-12-02T21:01:15.059Z,9.32
2023-12-02T21:04:20.859Z,9.05
2023-12-02T21:07:24.538Z,9.73
2023-12-02T21:10:28.157Z,10.82
2023-12-02T21:13:31.509Z,10.15
2023-12-02T21:16:37.107Z,9.88
2023-12-02T21:19:40.458Z,10.70
2023-12-02T21:22:45.050Z,10.07
2023-12-02T21:25:48.314Z,10.52
2023-12-02T21:28:51.836Z,10.05
2023-12-02T21:31:55.024Z,10.65
2023-12-02T21:35:13.684Z,10.57
2023-12-02T21:38:47.645Z,11.68
2023-12-02T21:41:56.096Z,17.33
2023-12-02T21:44:59.324Z,28.80
2023-12-02T21:48:07.717Z,13.07
2023-12-02T21:51:30.585Z,11.32
2023-12-02T21:54:37.104Z,11.15
2023-12-02T22:00:44.040Z,10.88
2023-12-02T22:03:47.594Z,11.75
2023-12-02T22:07:06.731Z,11.20
2023-12-02T22:10:29.471Z,10.00
2023-12-02T22:13:34.944Z,10.88
2023-12-02T22:16:38.326Z,9.52
2023-12-02T22:19:42.652Z,10.82
2023-12-02T22:22:46.341Z,9.30
2023-12-02T22:25:52.336Z,9.23
2023-12-02T22:28:57.587Z,8.73
2023-12-02T22:32:01.653Z,8.50
2023-12-02T22:35:06.411Z,8.93
2023-12-02T22:38:38.530Z,8.65
2023-12-02T22:41:44.489Z,8.77
2023-12-02T22:44:49.083Z,8.13
2023-12-02T22:47:52.753Z,9.02
2023-12-02T22:50:57.250Z,7.68
2023-12-02T22:54:01.194Z,8.57
2023-12-02T22:57:05.676Z,8.95
2023-12-02T23:00:21.078Z,8.48
2023-12-02T23:03:28.232Z,8.07
2023-12-02T23:06:32.197Z,7.65
2023-12-02T23:09:53.675Z,8.45
2023-12-02T23:12:58.266Z,7.30
2023-12-02T23:16:05.940Z,7.55
2023-12-02T23:19:24.193Z,7.43
2023-12-02T23:22:27.558Z,7.22
2023-12-02T23:25:30.793Z,6.53
2023-12-02T23:28:35.810Z,7.05
2023-12-02T23:31:41.700Z,6.00
2023-12-02T23:34:48.005Z,5.78
2023-12-02T23:37:55.885Z,6.07
2023-12-02T23:40:59.226Z,5.43
2023-12-02T23:44:09.085Z,5.20
2023-12-02T23:47:15.416Z,4.55
2023-12-02T23:50:22.716Z,5.07
2023-12-02T23:53:25.735Z,5.10
2023-12-02T23:56:30.163Z,4.90
2023-12-02T23:59:34.002Z,4.78
